Flight Track Log - Related Links

Times and Time Zones

All times are in EDT time to prevent confusion due to time zone crossing. See the N839CA flight status page for this flight to view local times or setup timezone preferences in your user account.


Time Position Orientation Groundspeed Altitude Reporting Facility
EDT Latitude Longitude Course Direction KTS MPH feet Rate Location/Type
Tue 04:29:56 PM 40.6500 -74.1833 246° West 146 168 1,500  Level New York TRACON
Tue 04:30:57 PM 40.6333 -74.2333 246° West 202 232 2,700 1,339 Climbing New York TRACON
Tue 04:31:57 PM 40.6500 -74.3167 285° West 202 232 4,200 1,500 Climbing New York TRACON
Tue 04:32:57 PM 40.6667 -74.3833 288° West 201 231 5,700 1,450 Climbing New York TRACON
Tue 04:33:57 PM 40.7167 -74.3833 360° North 197 227 7,100 1,450 Climbing New York TRACON
Tue 04:34:57 PM 40.7667 -74.3667 14° North 205 236 8,600 1,400 Climbing New York TRACON
Tue 04:35:57 PM 40.8167 -74.3833 346° North 210 242 9,900 1,300 Climbing New York TRACON
Tue 04:36:57 PM 40.8667 -74.4000 346° North 211 243 11,200 984 Climbing New York TRACON
Tue 04:38:05 PM 40.9247 -74.4594 322° Northwest 210 242 12,000 372 Climbing New York Center
Tue 04:39:06 PM 40.9792 -74.5200 320° Northwest 238 274 12,000  Level New York Center
Tue 04:40:06 PM 41.0333 -74.5836 318° Northwest 275 316 12,000  Level New York Center
Tue 04:41:06 PM 41.0958 -74.6503 321° Northwest 286 329 12,000  Level New York Center
Tue 04:42:07 PM 41.1553 -74.7364 313° West 291 335 12,000  Level New York Center
Tue 04:43:05 PM 41.1900 -74.8183 299° West 291 335 12,000 151 Level New York Center
Tue 04:44:06 PM 41.2364 -74.9233 300° West 296 341 12,300 942 Climbing New York Center
Tue 04:45:06 PM 41.2731 -75.0056 301° West 288 331 13,900 800 Climbing New York Center
Tue 04:46:06 PM 41.3039 -75.0767 300° West 265 305 13,900 496 Level New York Center
Tue 04:47:07 PM 41.3403 -75.1644 299° West 265 305 14,900 984 Climbing New York Center
Tue 04:48:08 PM 41.3767 -75.2472 300° West 253 291 15,900 508 Climbing New York Center
Tue 04:49:05 PM 41.4131 -75.3325 300° West 264 304 15,900  Level New York Center
Tue 04:50:06 PM 41.4472 -75.4150 299° West 275 316 15,900  Level New York Center
Tue 04:51:07 PM 41.4853 -75.5064 299° West 275 316 15,900  Level New York Center
Tue 04:52:04 PM 41.5269 -75.6092 298° West 275 316 15,900 50 Level New York Center
Tue 04:53:06 PM 41.5628 -75.7003 298° West 275 316 16,000 49 Climbing New York Center
Tue 04:54:07 PM 41.6006 -75.7919 299° West 275 316 16,000  Level New York Center
Tue 04:55:07 PM 41.6383 -75.8836 299° West 275 316 16,000  Level New York Center
Tue 04:56:05 PM 41.6758 -75.9781 298° West 275 316 16,000  Level New York Center
Tue 04:57:06 PM 41.7097 -76.0586 299° West 280 322 16,000  Level New York Center
Tue 04:58:07 PM 41.7453 -76.1503 297° West 280 322 16,000  Level New York Center
Tue 04:59:05 PM 41.7864 -76.2539 298° West 275 316 16,000  Level New York Center
Tue 05:00:04 PM 41.8236 -76.3458 299° West 275 316 16,000  Level New York Center
Tue 05:01:05 PM 41.8572 -76.4294 298° West 275 316 16,000  Level New York Center
Tue 05:02:06 PM 41.8944 -76.5219 298° West 275 316 16,000  Level New York Center
Tue 05:03:06 PM 41.9294 -76.6142 297° West 275 316 16,000  Level New York Center
Tue 05:04:06 PM 41.9667 -76.7067 298° West 275 316 16,000  Level New York Center
Tue 05:05:07 PM 42.0036 -76.7992 298° West 275 316 16,000  Level New York Center
Tue 05:06:45 PM 42.0653 -76.9525 298° West 269 310 16,000  Level Cleveland Center
Tue 05:07:45 PM 42.1017 -77.0456 298° West 275 316 16,000  Level Cleveland Center
Tue 05:08:45 PM 42.1317 -77.1419 293° West 280 322 16,000  Level Cleveland Center
Tue 05:09:45 PM 42.1636 -77.2383 294° West 280 322 16,000  Level Cleveland Center
Tue 05:10:45 PM 42.1956 -77.3319 295° West 280 322 16,000  Level Cleveland Center
Tue 05:11:45 PM 42.2272 -77.4283 294° West 280 322 16,000  Level Cleveland Center
Tue 05:12:45 PM 42.2569 -77.5222 293° West 280 322 16,000 -100 Level Cleveland Center
Tue 05:13:45 PM 42.2886 -77.6192 294° West 280 322 15,800 -500 Descending Cleveland Center
Tue 05:14:45 PM 42.3203 -77.7186 293° West 280 322 15,000 -800 Descending Cleveland Center
Tue 05:15:45 PM 42.3542 -77.8211 294° West 292 336 14,200 -800 Descending Cleveland Center
Tue 05:16:45 PM 42.3878 -77.9236 294° West 292 336 13,400 -750 Descending Cleveland Center
Tue 05:17:45 PM 42.4214 -78.0264 294° West 292 336 12,700 -800 Descending Cleveland Center
Tue 05:18:45 PM 42.4528 -78.1292 293° West 292 336 11,800 -850 Descending Cleveland Center
Tue 05:19:45 PM 42.4864 -78.2322 294° West 292 336 11,000 -1,000 Descending Cleveland Center
Tue 05:20:45 PM 42.5400 -78.3147 311° West 287 330 9,800 -1,200 Descending Cleveland Center
Tue 05:21:45 PM 42.5936 -78.3917 313° West 287 330 8,600 -1,150 Descending Cleveland Center
Tue 05:22:45 PM 42.6450 -78.4689 312° West 282 325 7,500 -1,150 Descending Cleveland Center
Tue 05:23:45 PM 42.6944 -78.5464 311° West 276 318 6,300 -1,250 Descending Cleveland Center
Tue 05:24:45 PM 42.7478 -78.6239 313° West 271 312 5,000 -1,200 Descending Cleveland Center
Tue 05:25:45 PM 42.8050 -78.6786 325° Northwest 257 296 3,900 -1,250 Descending Cleveland Center
Tue 05:26:45 PM 42.8664 -78.7278 330° Northwest 257 296 2,500 -1,299 Descending Cleveland Center
Tue 05:27:22 PM 42.9000 -78.7500 334° Northwest 206 237 1,800 -1,113 Descending Buffalo TRACON
Tue 05:28:22 PM 42.9333 -78.7333 20° North 109 125 700 -1,100 Descending Buffalo TRACON

Login

Don't have an account? Register now (free) for customized features, flight alerts, and more!